ADDS METAR Data INFO
IDs: Format: Raw Decoded Include TAF

Data at: 0546 UTC 22 Nov 2017

KLNC 220535Z AUTO 36014G22KT 10SM CLR 13/02 A3024 RMK AO2 T01250018
KLNC 220515Z AUTO 36016G20KT 10SM CLR 13/02 A3023 RMK AO2 T01260022
KLNC 220455Z AUTO 36013KT 10SM CLR 13/03 A3022 RMK AO2 T01300026
KLNC 220435Z AUTO 36011G21KT 10SM CLR 14/03 A3021 RMK AO2 T01350026
KLNC 220415Z AUTO 01012G18KT 10SM CLR 14/03 A3020 RMK AO2 T01360028
KLNC 220355Z AUTO 36012G18KT 10SM CLR 14/03 A3020 RMK AO2 T01380033
KLNC 220335Z AUTO 01014G23KT 10SM CLR 14/04 A3018 RMK AO2 T01420036
KLNC 220315Z AUTO 01015G23KT 10SM CLR 15/04 A3017 RMK AO2 T01450044
KLNC 220255Z AUTO 01019G25KT 10SM SCT048 15/06 A3016 RMK AO2 T01520058
KLNC 220235Z AUTO 01016G22KT 10SM BKN048 16/08 A3014 RMK AO2 T01620075
KLNC 220215Z AUTO 01010G16KT 10SM BKN048 16/08 A3013 RMK AO2 T01630075
KLNC 220155Z AUTO 01009G15KT 10SM BKN048 17/08 A3012 RMK AO2 T01670080
KLNC 220135Z AUTO 36012G20KT 10SM OVC048 17/09 A3011 RMK AO2 T01720086
KLNC 220115Z AUTO 36009G14KT 10SM OVC048 17/10 A3009 RMK AO2 T01730100
KLNC 220055Z AUTO 35006KT 10SM SCT042 OVC048 17/10 A3007 RMK AO2 T01670100
KLNC 220035Z AUTO 35007KT 10SM SCT038 BKN044 17/10 A3007 RMK AO2 T01680099
KLNC 220015Z AUTO 35008KT 10SM SCT036 16/10 A3005 RMK AO2 T01630100
KLNC 212355Z AUTO 34006KT 10SM CLR 17/10 A3003 RMK AO2 T01650103 10204 20164
KLNC 212335Z AUTO 36004KT 10SM CLR 17/10 A3001 RMK AO2 T01700104
KLNC 212315Z AUTO 35004KT 10SM CLR 18/11 A3000 RMK AO2 T01800107
KLNC 212255Z AUTO 03004KT 10SM CLR 18/11 A2999 RMK AO2 T01820108
KLNC 212235Z AUTO 04005KT 10SM CLR 19/11 A2998 RMK AO2 T01860111
KLNC 212215Z AUTO 05007KT 10SM CLR 19/11 A2997 RMK AO2 LTG DSNT SE T01900111
KLNC 212155Z AUTO 05007KT 10SM CLR 19/11 A2996 RMK AO2 T01940106
KLNC 212140Z AUTO 05005KT 10SM CLR 20/11 A2996 RMK AO2 T01960109
KLNC 212115Z AUTO 03005KT 10SM CLR 20/11 A2995 RMK AO2 T01960106
KLNC 212055Z AUTO 02007KT 10SM SCT035 20/11 A2995 RMK AO2 T02010107
KLNC 212035Z AUTO 02005KT 10SM CLR 20/11 A2993 RMK AO2 T02010108
KLNC 212015Z AUTO 04004KT 10SM CLR 20/11 A2992 RMK AO2 T02010110
KLNC 211955Z AUTO 00000KT 10SM SCT033 20/11 A2991 RMK AO2 T01960110
KLNC 211935Z AUTO 00000KT 10SM SCT029 20/11 A2992 RMK AO2 T01980110
KLNC 211915Z AUTO 00000KT 10SM SCT029 19/11 A2992 RMK AO2 T01940114
KLNC 211855Z AUTO 15005KT 10SM SCT027 20/12 A2991 RMK AO2 T01950115
KLNC 211835Z AUTO 00000KT 10SM SCT025 19/12 A2991 RMK AO2 T01920116
KLNC 211815Z AUTO 19004KT 10SM SCT023 19/12 A2992 RMK AO2 T01890117
KLNC 211755Z AUTO 18004KT 10SM SCT021 18/12 A2993 RMK AO2 T01820119 10182 20076
KLNC 211735Z AUTO 18007KT 10SM SCT021 18/12 A2993 RMK AO2 T01800120
KLNC 211715Z AUTO 19008KT 10SM SCT017 17/12 A2993 RMK AO2 T01730121
KLNC 211655Z AUTO 21004KT 10SM SCT015 16/12 A2993 RMK AO2 T01590116
KLNC 211635Z AUTO 18005KT 10SM SCT013 15/11 A2992 RMK AO2 T01510114
KLNC 211615Z AUTO 17006KT 10SM SCT009 SCT013 14/11 A2991 RMK AO2 T01380110
KLNC 211555Z AUTO 18009KT 10SM SCT007 13/11 A2991 RMK AO2 T01330108
KLNC 211535Z AUTO 17007KT 10SM SCT007 12/11 A2990 RMK AO2 T01230106
KLNC 211515Z AUTO 16007KT 10SM SCT007 12/10 A2990 RMK AO2 T01180101
KLNC 211455Z AUTO 16009KT 10SM BKN005 12/10 A2991 RMK AO2 T01150100
KLNC 211435Z AUTO 16010G15KT 7SM OVC005 11/10 A2991 RMK AO2 T01080097
KLNC 211415Z AUTO 17004KT 7SM OVC005 10/09 A2992 RMK AO2 T01010092
KLNC 211355Z AUTO 14004KT 7SM OVC005 09/09 A2991 RMK AO2 T00940086
KLNC 211335Z AUTO 14004KT 7SM OVC005 09/08 A2991 RMK AO2 T00890081
KLNC 211315Z AUTO 14007KT 7SM SCT005 08/07 A2989 RMK AO2 T00790070
KLNC 211255Z AUTO 14005KT 10SM SCT008 08/07 A2989 RMK AO2 T00800071
KLNC 211235Z AUTO 13004KT 10SM SCT008 08/07 A2989 RMK AO2 T00770067
KLNC 211215Z AUTO 13004KT 10SM SCT008 08/07 A2989 RMK AO2 T00830071
KLNC 211155Z AUTO 13005KT 10SM CLR 09/07 A2989 RMK AO2 T00850073 10094 20055
KLNC 211135Z AUTO 15006KT 10SM CLR 09/07 A2988 RMK AO2 T00870073
KLNC 211115Z AUTO 15007KT 10SM CLR 09/08 A2987 RMK AO2 T00910075
KLNC 211055Z AUTO 17007KT 10SM CLR 09/08 A2987 RMK AO2 T00920076
KLNC 211035Z AUTO 16006KT 10SM CLR 09/07 A2987 RMK AO2 T00900073
KLNC 211015Z AUTO 16005KT 10SM CLR 09/07 A2988 RMK AO2 T00850069
KLNC 210955Z AUTO 16004KT 10SM CLR 08/06 A2989 RMK AO2 T00820064
KLNC 210935Z AUTO 16004KT 10SM CLR 08/06 A2990 RMK AO2 T00810060
KLNC 210915Z AUTO 16004KT 10SM CLR 08/06 A2991 RMK AO2 T00820060
KLNC 210855Z AUTO 17004KT 10SM CLR 09/06 A2992 RMK AO2 T00850059
KLNC 210835Z AUTO 16004KT 10SM CLR 08/06 A2991 RMK AO2 T00830055
KLNC 210815Z AUTO 18004KT 10SM CLR 08/05 A2991 RMK AO2 T00790051
KLNC 210755Z AUTO 17003KT 10SM CLR 07/04 A2991 RMK AO2 T00700042
KLNC 210735Z AUTO 00000KT 10SM CLR 06/03 A2991 RMK AO2 T00610030
KLNC 210715Z AUTO 16003KT 10SM CLR 06/03 A2992 RMK AO2 T00620025
KLNC 210655Z AUTO 00000KT 10SM CLR 06/02 A2993 RMK AO2 T00560017
KLNC 210635Z AUTO 00000KT 10SM CLR 06/01 A2994 RMK AO2 T00620011
KLNC 210615Z AUTO 00000KT 10SM CLR 06/01 A2995 RMK AO2 T00630007
KLNC 210555Z AUTO 00000KT 10SM CLR 08/02 A2997 RMK AO2 T00750016 10134 20074 401800008
KLNC 210535Z AUTO 00000KT 10SM CLR 08/02 A2997 RMK AO2 T00820015
KLNC 210515Z AUTO 00000KT 10SM CLR 08/02 A2997 RMK AO2 T00830015
KLNC 210455Z AUTO 00000KT 10SM CLR 09/01 A2997 RMK AO2 T00880013
KLNC 210435Z AUTO 00000KT 10SM CLR 09/01 A2997 RMK AO2 T00860010
KLNC 210415Z AUTO 00000KT 10SM CLR 09/01 A2997 RMK AO2 T00850011
KLNC 210355Z AUTO 18003KT 10SM CLR 08/01 A2997 RMK AO2 T00820005
KLNC 210335Z AUTO 00000KT 10SM CLR 10/00 A2999 RMK AO2 T00950004
KLNC 210315Z AUTO 15003KT 10SM CLR 10/00 A2998 RMK AO2 T00950001
KLNC 210255Z AUTO 16004KT 10SM CLR 09/00 A2998 RMK AO2 T00891001
KLNC 210235Z AUTO 00000KT 10SM CLR 09/00 A2998 RMK AO2 T00941001
KLNC 210215Z AUTO 15004KT 10SM CLR 10/00 A2998 RMK AO2 T00970000
KLNC 210155Z AUTO 16005KT 10SM CLR 11/00 A2998 RMK AO2 T01070000
KLNC 210135Z AUTO 16005KT 10SM CLR 11/00 A2999 RMK AO2 T01070000
KLNC 210115Z AUTO 15004KT 10SM CLR 11/00 A3000 RMK AO2 T01131001
KLNC 210055Z AUTO 16004KT 10SM CLR 11/00 A3000 RMK AO2 T01121003
KLNC 210035Z AUTO 16004KT 10SM CLR 12/M01 A3001 RMK AO2 T01231006
KLNC 210015Z AUTO 16003KT 10SM CLR 13/M01 A3001 RMK AO2 T01311007
KLNC 202355Z AUTO 16004KT 10SM CLR 14/M01 A3001 RMK AO2 T01351007 10180 20135
KLNC 202335Z AUTO 16004KT 10SM CLR 14/M01 A3001 RMK AO2 T01431007
KLNC 202315Z AUTO 17005KT 10SM CLR 15/M01 A3002 RMK AO2 T01531010
KLNC 202255Z AUTO 18008KT 10SM CLR 16/M01 A3002 RMK AO2 T01611012
KLNC 202235Z AUTO 18009KT 10SM CLR 17/M01 A3002 RMK AO2 T01691010
KLNC 202215Z AUTO 17011KT 10SM CLR 17/M01 A3002 RMK AO2 T01721008
KLNC 202155Z AUTO 20011G16KT 10SM CLR 18/M01 A3002 RMK AO2 T01761008
KLNC 202135Z AUTO 18012G17KT 10SM CLR 18/M01 A3002 RMK AO2 T01751013
KLNC 202115Z AUTO 17015G20KT 10SM CLR 18/M01 A3002 RMK AO2 T01761015
KLNC 202055Z AUTO 19011KT 10SM CLR 18/M02 A3003 RMK AO2 T01771017
KLNC 202035Z AUTO 19015G19KT 10SM CLR 18/M01 A3004 RMK AO2 T01771015
KLNC 202015Z AUTO 20013G20KT 10SM CLR 17/M01 A3005 RMK AO2 T01741015
KLNC 201955Z AUTO 20013G20KT 10SM CLR 18/M01 A3007 RMK AO2 T01751012
KLNC 201935Z AUTO 19011G17KT 10SM CLR 17/M01 A3007 RMK AO2 T01721011
KLNC 201915Z AUTO 17012KT 10SM CLR 17/M01 A3007 RMK AO2 T01711012
KLNC 201855Z AUTO 19014G20KT 10SM CLR 17/M01 A3009 RMK AO2 T01711010
KLNC 201835Z AUTO 18011G17KT 10SM CLR 17/00 A3010 RMK AO2 T01681005
KLNC 201815Z AUTO 20012G17KT 10SM CLR 17/00 A3013 RMK AO2 T01650000
KLNC 201755Z AUTO 20013G17KT 10SM CLR 16/00 A3015 RMK AO2 T01601004 10160 20008